LEST/SCQ METAR and TAF weather

Enter ICAO airport designator
Station Type Date Time Source
LEST METAR 2020/09/23 02:00 UTC NOAA

LEST 230200Z 22003KT 180V280 9999 BKN005 BKN012 OVC032 16/15 Q1011 TEMPO 1000 BCFG


Station Type Date Time Source
LEST Decoded METAR 2020/09/23 02:00 UTC NOAA

Santiago / Labacolla, Spain (LEST) 42-54N 008-26W 367M
Sep 22, 2020 - 10:00 PM EDT / 2020.09.23 0200 UTC
Wind: from the SW (220 degrees) at 3 MPH (3 KT) (direction variable):0
Visibility: greater than 7 mile(s):0
Sky conditions: overcast
Temperature: 60 F (16 C)
Dew Point: 59 F (15 C)
Relative Humidity: 93%
Pressure (altimeter): 29.85 in. Hg (1011 hPa)
ob: LEST 230200Z 22003KT 180V280 9999 BKN005 BKN012 OVC032 16/15 Q1011 TEMPO 1000 BCFG
cycle: 2

Station Type Date Time Source
LEST TAF 2020/09/22 18:27 UTC NOAA

TAF TAF LEST 221700Z 2218/2318 22009KT 9999 SCT010 BKN020 TX20/2315Z TN14/2305Z
TEMPO 2218/2224 3000 SHRA RA BKN010 BKN025TCU
TEMPO 2218/2309 1500 -RA BKN002 BKN005 PROB40
TEMPO 2300/2309 0600 -RA FG VV001
BECMG 2310/2314 28010KT

Example: see airport list